createdAt,value
2019-03-21T00:01:39.886Z,43.63
2019-03-21T00:04:12.415Z,41.33
2019-03-21T00:06:43.820Z,41.20
2019-03-21T00:09:16.170Z,42.93
2019-03-21T00:12:03.522Z,43.00
2019-03-21T00:14:55.486Z,42.63
2019-03-21T00:17:31.431Z,41.63
2019-03-21T00:20:01.723Z,42.50
2019-03-21T00:22:32.256Z,42.63
2019-03-21T00:25:02.522Z,41.67
2019-03-21T00:27:33.115Z,41.90
2019-03-21T00:30:03.477Z,43.30
2019-03-21T00:32:33.692Z,42.67
2019-03-21T00:35:04.047Z,42.13
2019-03-21T00:37:34.251Z,42.07
2019-03-21T00:40:05.316Z,42.97
2019-03-21T00:42:35.934Z,40.60
2019-03-21T00:45:06.879Z,41.93
2019-03-21T00:47:37.093Z,41.93
2019-03-21T00:50:08.865Z,42.77
2019-03-21T00:52:39.064Z,44.27
2019-03-21T00:55:10.824Z,45.67
2019-03-21T00:57:41.032Z,47.27
2019-03-21T01:00:15.575Z,47.27
2019-03-21T01:02:45.856Z,46.70
2019-03-21T01:05:16.088Z,49.27
2019-03-21T01:07:46.977Z,48.67
2019-03-21T01:10:18.142Z,49.83
2019-03-21T01:12:48.429Z,50.47
2019-03-21T01:15:18.640Z,50.27
2019-03-21T01:17:48.931Z,50.23
2019-03-21T01:20:19.143Z,49.70
2019-03-21T01:22:49.357Z,52.00
2019-03-21T01:25:23.036Z,49.63
2019-03-21T01:27:53.247Z,52.07
2019-03-21T01:30:23.836Z,51.53
2019-03-21T01:32:54.080Z,51.13
2019-03-21T01:35:24.358Z,51.20
2019-03-21T01:37:54.640Z,53.20
2019-03-21T01:40:25.806Z,52.07
2019-03-21T01:42:56.007Z,51.40
2019-03-21T01:45:26.363Z,49.77
2019-03-21T01:47:57.572Z,53.80
2019-03-21T01:50:27.900Z,52.50
2019-03-21T01:52:58.123Z,53.43
2019-03-21T01:55:28.316Z,52.93
2019-03-21T01:57:58.600Z,53.83
2019-03-21T02:00:31.551Z,52.33
2019-03-21T02:03:01.836Z,52.90
2019-03-21T02:05:32.100Z,53.43
2019-03-21T02:08:02.389Z,53.03
2019-03-21T02:10:32.990Z,53.13
2019-03-21T02:13:03.216Z,53.47
2019-03-21T02:15:35.123Z,53.30
2019-03-21T02:18:06.382Z,52.40
2019-03-21T02:20:36.944Z,51.30
2019-03-21T02:23:07.156Z,50.23
2019-03-21T02:25:37.446Z,52.90
2019-03-21T02:28:07.962Z,50.10
2019-03-21T02:30:38.521Z,60.58
2019-03-21T02:33:21.194Z,51.80
2019-03-21T02:35:51.403Z,49.63
2019-03-21T02:38:21.708Z,50.00
2019-03-21T02:40:52.371Z,49.80
2019-03-21T02:43:22.589Z,50.27
2019-03-21T02:45:52.830Z,49.77
2019-03-21T02:48:23.040Z,50.43
2019-03-21T02:50:53.271Z,49.43
2019-03-21T02:53:23.539Z,46.97
2019-03-21T02:55:53.862Z,47.17
2019-03-21T02:58:24.082Z,48.83
2019-03-21T03:00:54.385Z,48.20
2019-03-21T03:03:24.678Z,47.60
2019-03-21T03:05:54.885Z,44.20
2019-03-21T03:08:25.088Z,46.03
2019-03-21T03:10:55.577Z,45.33
2019-03-21T03:13:25.790Z,44.83
2019-03-21T03:15:56.444Z,46.47
2019-03-21T03:18:26.926Z,46.17
2019-03-21T03:20:57.129Z,45.27
2019-03-21T03:23:27.515Z,44.37
2019-03-21T03:25:57.788Z,44.07
2019-03-21T03:28:28.044Z,44.17
2019-03-21T03:30:58.400Z,46.73
2019-03-21T03:33:28.857Z,45.80
2019-03-21T03:35:59.403Z,45.23
2019-03-21T03:38:29.895Z,44.00
2019-03-21T03:41:00.768Z,42.90
2019-03-21T03:43:31.544Z,42.07
2019-03-21T03:46:01.761Z,41.70
2019-03-21T03:48:32.042Z,43.53
2019-03-21T03:51:02.507Z,42.67
2019-03-21T03:53:32.727Z,42.97
2019-03-21T03:56:03.052Z,43.27
2019-03-21T03:58:33.660Z,44.30
2019-03-21T04:01:04.216Z,43.80
2019-03-21T04:03:34.631Z,43.63
2019-03-21T04:06:05.254Z,44.00
2019-03-21T04:08:35.626Z,43.00
2019-03-21T04:11:06.560Z,42.63
2019-03-21T04:13:37.129Z,43.10
2019-03-21T04:16:07.396Z,44.30
2019-03-21T04:18:37.636Z,43.40
2019-03-21T04:21:08.152Z,44.07
2019-03-21T04:23:38.651Z,43.70
2019-03-21T04:26:21.613Z,43.93
2019-03-21T04:28:51.889Z,42.03
2019-03-21T04:31:22.173Z,42.30
2019-03-21T04:33:54.258Z,43.23
2019-03-21T04:36:24.530Z,43.77
2019-03-21T04:38:54.805Z,44.30
2019-03-21T04:41:25.017Z,42.87
2019-03-21T04:43:55.494Z,43.67
2019-03-21T04:46:25.930Z,42.00
2019-03-21T04:48:56.198Z,43.77
2019-03-21T04:51:26.476Z,44.57
2019-03-21T04:53:56.761Z,44.70
2019-03-21T04:56:26.980Z,44.13
2019-03-21T04:58:58.520Z,44.10
2019-03-21T05:01:28.730Z,45.40
2019-03-21T05:03:58.941Z,44.57
2019-03-21T05:06:29.207Z,42.80
2019-03-21T05:08:59.411Z,43.67
2019-03-21T05:11:29.739Z,42.97
2019-03-21T05:14:00.295Z,41.40
2019-03-21T05:16:31.542Z,38.93
2019-03-21T05:19:01.835Z,38.47
2019-03-21T05:21:32.341Z,38.93
2019-03-21T05:24:02.887Z,38.40
2019-03-21T05:26:33.091Z,41.47
2019-03-21T05:29:03.310Z,40.07
2019-03-21T05:31:34.588Z,42.33
2019-03-21T05:34:05.028Z,41.80
2019-03-21T05:36:35.236Z,41.47
2019-03-21T05:39:08.312Z,39.83
2019-03-21T05:41:38.620Z,38.13
2019-03-21T05:44:20.545Z,37.20
2019-03-21T05:46:51.087Z,36.03
2019-03-21T05:49:21.351Z,35.87
2019-03-21T05:51:51.739Z,35.73
2019-03-21T05:54:21.934Z,34.40
2019-03-21T05:56:52.139Z,34.63
2019-03-21T05:59:22.334Z,35.77
2019-03-21T06:01:52.587Z,35.43
2019-03-21T06:04:22.854Z,34.90
2019-03-21T06:07:34.070Z,34.70
2019-03-21T06:10:05.576Z,34.13
2019-03-21T06:12:42.238Z,34.47
2019-03-21T06:15:13.491Z,33.03
2019-03-21T06:17:44.671Z,33.10
2019-03-21T06:20:36.236Z,33.27
2019-03-21T06:23:34.768Z,29.20
2019-03-21T06:26:20.760Z,28.90
2019-03-21T06:28:51.471Z,28.83
2019-03-21T06:31:22.023Z,26.60
2019-03-21T06:33:52.226Z,23.40
2019-03-21T06:36:22.489Z,26.00
2019-03-21T06:38:52.819Z,25.60
2019-03-21T06:41:23.024Z,25.90
2019-03-21T06:43:53.236Z,24.80
2019-03-21T06:46:23.440Z,25.50
2019-03-21T06:48:53.647Z,26.10
2019-03-21T06:51:23.915Z,24.03
2019-03-21T06:53:54.476Z,24.70
2019-03-21T06:56:24.752Z,26.07
2019-03-21T06:58:56.048Z,26.13
2019-03-21T07:01:26.486Z,25.13
2019-03-21T07:04:06.659Z,24.67
2019-03-21T07:06:28.623Z,25.83
2019-03-21T07:08:58.827Z,27.13
2019-03-21T07:11:29.043Z,26.07
2019-03-21T07:13:59.484Z,23.37
2019-03-21T07:16:29.692Z,26.60
2019-03-21T07:18:59.907Z,27.70
2019-03-21T07:21:30.311Z,26.47
2019-03-21T07:24:00.602Z,27.77
2019-03-21T07:26:31.060Z,28.70
2019-03-21T07:29:01.429Z,30.43
2019-03-21T07:31:31.754Z,30.53
2019-03-21T07:34:02.080Z,30.20
2019-03-21T07:36:32.466Z,31.63
2019-03-21T07:39:04.013Z,32.07
2019-03-21T07:41:34.235Z,32.10
2019-03-21T07:44:04.684Z,30.67
2019-03-21T07:46:34.933Z,32.13
2019-03-21T07:49:05.268Z,31.33
2019-03-21T07:51:35.799Z,27.83
2019-03-21T07:54:06.148Z,30.27
2019-03-21T07:56:36.524Z,29.80
2019-03-21T07:59:06.876Z,31.63
2019-03-21T08:01:37.444Z,31.60
2019-03-21T08:04:07.695Z,31.13
2019-03-21T08:06:38.254Z,30.17
2019-03-21T08:09:08.932Z,30.97
2019-03-21T08:11:39.131Z,30.40
2019-03-21T08:14:09.594Z,30.83
2019-03-21T08:16:39.820Z,30.87
2019-03-21T08:19:10.092Z,32.23
2019-03-21T08:21:40.964Z,32.20
2019-03-21T08:24:11.181Z,33.30
2019-03-21T08:26:41.952Z,33.23
2019-03-21T08:29:12.411Z,31.73
2019-03-21T08:31:42.872Z,32.63
2019-03-21T08:34:13.085Z,32.53
2019-03-21T08:36:43.356Z,30.30
2019-03-21T08:39:13.661Z,32.20
2019-03-21T08:41:44.011Z,29.87
2019-03-21T08:44:15.147Z,29.87
2019-03-21T08:46:45.456Z,27.07
2019-03-21T08:49:16.119Z,29.17
2019-03-21T08:51:46.411Z,26.27
2019-03-21T08:54:16.999Z,28.07
2019-03-21T08:56:47.295Z,29.83
2019-03-21T08:59:20.978Z,27.17
2019-03-21T09:01:51.439Z,28.63
2019-03-21T09:04:21.653Z,28.57
2019-03-21T09:06:52.862Z,28.07
2019-03-21T09:09:23.832Z,28.73
2019-03-21T09:11:54.139Z,28.80
2019-03-21T09:14:24.391Z,26.77
2019-03-21T09:16:54.880Z,27.17
2019-03-21T09:19:25.116Z,25.37
2019-03-21T09:21:55.395Z,24.20
2019-03-21T09:24:25.688Z,25.50
2019-03-21T09:26:55.953Z,25.83
2019-03-21T09:29:26.159Z,27.47
2019-03-21T09:31:56.395Z,26.30
2019-03-21T09:34:27.762Z,26.13
2019-03-21T09:36:58.149Z,27.07
2019-03-21T09:39:28.347Z,24.27
2019-03-21T09:41:58.559Z,27.77
2019-03-21T09:44:29.492Z,27.43
2019-03-21T09:47:00.043Z,26.10
2019-03-21T09:49:30.240Z,25.60
2019-03-21T09:52:00.517Z,23.30
2019-03-21T09:54:30.743Z,21.97
2019-03-21T09:57:00.956Z,21.63
2019-03-21T09:59:31.162Z,22.37
2019-03-21T10:02:01.373Z,23.60
2019-03-21T10:04:32.623Z,21.43
2019-03-21T10:07:03.468Z,22.87
2019-03-21T10:09:33.683Z,20.57
2019-03-21T10:12:04.383Z,21.70
2019-03-21T10:14:34.573Z,21.67
2019-03-21T10:17:04.939Z,25.10
2019-03-21T10:19:35.140Z,21.90
2019-03-21T10:22:05.619Z,22.87
2019-03-21T10:24:35.832Z,21.97
2019-03-21T10:27:06.123Z,21.43
2019-03-21T10:29:36.315Z,21.87
2019-03-21T10:32:14.168Z,22.03
2019-03-21T10:34:38.594Z,20.33
2019-03-21T10:37:08.905Z,20.07
2019-03-21T10:39:39.104Z,20.23
2019-03-21T10:42:09.450Z,20.60
2019-03-21T10:44:39.657Z,20.00
2019-03-21T10:47:10.218Z,19.77
2019-03-21T10:49:41.461Z,18.23
2019-03-21T10:52:11.773Z,18.27
2019-03-21T10:54:42.063Z,20.20
2019-03-21T10:57:12.343Z,19.60
2019-03-21T10:59:42.559Z,18.93
2019-03-21T11:02:13.062Z,19.87
2019-03-21T11:04:44.167Z,19.23
2019-03-21T11:07:12.725Z,19.17
2019-03-21T11:09:42.924Z,19.47
2019-03-21T11:12:13.189Z,18.97
2019-03-21T11:14:44.708Z,19.67
2019-03-21T11:17:15.268Z,20.93
2019-03-21T11:19:45.476Z,18.40
2019-03-21T11:22:15.708Z,18.43
2019-03-21T11:24:45.923Z,18.37
2019-03-21T11:27:17.099Z,19.03
2019-03-21T11:29:47.755Z,17.97
2019-03-21T11:32:18.288Z,18.63
2019-03-21T11:34:48.564Z,18.13
2019-03-21T11:37:18.892Z,18.57
2019-03-21T11:39:49.632Z,19.87
2019-03-21T11:42:19.835Z,19.93
2019-03-21T11:44:50.145Z,20.80
2019-03-21T11:47:20.456Z,21.27
2019-03-21T11:49:50.652Z,20.47
2019-03-21T11:52:21.011Z,21.53
2019-03-21T11:54:51.504Z,20.77
2019-03-21T11:57:21.716Z,22.23
2019-03-21T11:59:52.546Z,22.83
2019-03-21T12:02:27.355Z,22.43
2019-03-21T12:04:54.702Z,21.17
2019-03-21T12:07:26.034Z,21.63
2019-03-21T12:09:57.255Z,22.37
2019-03-21T12:12:27.453Z,21.13
2019-03-21T12:14:57.740Z,21.57
2019-03-21T12:17:27.965Z,21.67
2019-03-21T12:19:58.525Z,21.47
2019-03-21T12:22:30.423Z,20.53
2019-03-21T12:25:00.992Z,20.33
2019-03-21T12:27:31.256Z,20.13
2019-03-21T12:30:01.466Z,20.23
2019-03-21T12:32:31.722Z,20.20
2019-03-21T12:35:02.107Z,19.67
2019-03-21T12:37:32.310Z,20.97
2019-03-21T12:40:02.595Z,20.63
2019-03-21T12:42:32.887Z,20.93
2019-03-21T12:45:03.415Z,20.97
2019-03-21T12:47:33.782Z,22.50
2019-03-21T12:50:05.229Z,22.13
2019-03-21T12:52:41.420Z,22.27
2019-03-21T12:55:08.107Z,21.20
2019-03-21T12:57:38.317Z,22.73
2019-03-21T13:00:09.326Z,22.00
2019-03-21T13:02:39.668Z,22.30
2019-03-21T13:05:11.656Z,21.80
2019-03-21T13:07:42.372Z,21.53
2019-03-21T13:10:12.735Z,20.33
2019-03-21T13:12:42.946Z,21.87
2019-03-21T13:15:13.158Z,20.13
2019-03-21T13:17:43.363Z,19.90
2019-03-21T13:20:13.645Z,21.67
2019-03-21T13:22:52.561Z,19.20
2019-03-21T13:25:15.848Z,20.33
2019-03-21T13:27:46.044Z,20.37
2019-03-21T13:30:16.852Z,20.20
2019-03-21T13:32:47.272Z,20.07
2019-03-21T13:35:17.720Z,19.00
2019-03-21T13:37:47.932Z,17.43
2019-03-21T13:40:18.212Z,17.53
2019-03-21T13:42:48.576Z,18.30
2019-03-21T13:45:19.112Z,17.33
2019-03-21T13:47:49.690Z,16.77
2019-03-21T13:50:19.896Z,16.50
2019-03-21T13:52:50.269Z,16.37
2019-03-21T13:55:21.474Z,16.40
2019-03-21T13:57:51.712Z,15.70
2019-03-21T14:00:22.460Z,15.47
2019-03-21T14:02:52.655Z,15.30
2019-03-21T14:05:23.240Z,15.90
2019-03-21T14:07:53.546Z,15.33
2019-03-21T14:10:24.133Z,14.83
2019-03-21T14:12:54.420Z,16.13
2019-03-21T14:15:25.928Z,14.90
2019-03-21T14:17:56.197Z,14.73
2019-03-21T14:20:26.707Z,15.80
2019-03-21T14:22:56.920Z,15.23
2019-03-21T14:25:27.455Z,14.87
2019-03-21T14:27:57.729Z,13.90
2019-03-21T14:30:28.052Z,13.43
2019-03-21T14:32:58.252Z,15.23
2019-03-21T14:35:29.472Z,14.87
2019-03-21T14:37:59.956Z,14.53
2019-03-21T14:40:30.555Z,14.33
2019-03-21T14:43:01.325Z,14.97
2019-03-21T14:45:32.079Z,15.23
2019-03-21T14:48:02.275Z,14.40
2019-03-21T14:50:32.485Z,14.43
2019-03-21T14:53:02.808Z,14.40
2019-03-21T14:55:34.223Z,14.00
2019-03-21T14:58:04.516Z,14.40
2019-03-21T15:00:35.039Z,13.90
2019-03-21T15:03:05.260Z,14.37
2019-03-21T15:05:35.944Z,14.73
2019-03-21T15:08:06.246Z,15.63
2019-03-21T15:10:36.511Z,15.57
2019-03-21T15:13:06.720Z,14.63
2019-03-21T15:15:37.201Z,15.50
2019-03-21T15:18:07.416Z,15.53
2019-03-21T15:20:37.640Z,15.30
2019-03-21T15:23:07.844Z,15.77
2019-03-21T15:25:38.131Z,15.60
2019-03-21T15:28:08.457Z,16.63
2019-03-21T15:30:38.860Z,16.30
2019-03-21T15:33:09.059Z,16.27
2019-03-21T15:35:39.267Z,16.87
2019-03-21T15:38:10.507Z,17.00
2019-03-21T15:40:40.855Z,17.27
2019-03-21T15:43:11.482Z,18.17
2019-03-21T15:45:41.687Z,18.63
2019-03-21T15:48:12.217Z,18.20
2019-03-21T15:50:42.435Z,19.73
2019-03-21T15:53:12.710Z,19.37
2019-03-21T15:55:42.902Z,19.77
2019-03-21T15:58:13.254Z,19.03
2019-03-21T16:00:44.183Z,19.57
2019-03-21T16:03:14.644Z,20.40
2019-03-21T16:05:44.927Z,18.33
2019-03-21T16:08:15.153Z,19.67
2019-03-21T16:10:45.351Z,19.23
2019-03-21T16:13:15.594Z,19.80
2019-03-21T16:15:45.785Z,19.83
2019-03-21T16:18:16.232Z,17.80
2019-03-21T16:20:46.443Z,18.50
2019-03-21T16:23:16.644Z,16.63
2019-03-21T16:25:48.676Z,17.67
2019-03-21T16:28:20.284Z,15.27
2019-03-21T16:30:50.697Z,16.60
2019-03-21T16:33:20.976Z,17.00
2019-03-21T16:35:51.207Z,17.70
2019-03-21T16:38:21.774Z,17.63
2019-03-21T16:40:51.973Z,17.07
2019-03-21T16:43:23.136Z,18.20
2019-03-21T16:45:53.688Z,19.27
2019-03-21T16:48:23.897Z,19.03
2019-03-21T16:50:54.415Z,19.47
2019-03-21T16:53:24.691Z,20.17
2019-03-21T16:55:54.896Z,20.93
2019-03-21T16:58:25.135Z,20.47
2019-03-21T17:00:55.351Z,21.33
2019-03-21T17:03:25.628Z,21.20
2019-03-21T17:05:55.910Z,19.90
2019-03-21T17:08:26.167Z,20.83
2019-03-21T17:10:56.488Z,21.33
2019-03-21T17:13:27.331Z,21.47
2019-03-21T17:15:57.856Z,21.10
2019-03-21T17:18:28.695Z,20.63
2019-03-21T17:20:59.131Z,21.03
2019-03-21T17:23:29.477Z,20.93
2019-03-21T17:25:59.784Z,22.27
2019-03-21T17:28:30.351Z,20.37
2019-03-21T17:31:00.561Z,19.07
2019-03-21T17:33:30.824Z,19.10
2019-03-21T17:36:01.435Z,19.97
2019-03-21T17:38:31.703Z,20.10
2019-03-21T17:41:02.009Z,18.93
2019-03-21T17:43:32.463Z,18.53
2019-03-21T17:46:02.925Z,18.57
2019-03-21T17:48:33.132Z,19.53
2019-03-21T17:51:03.751Z,19.90
2019-03-21T17:53:33.952Z,19.73
2019-03-21T17:56:04.500Z,19.77
2019-03-21T17:58:34.695Z,19.87
2019-03-21T18:01:05.297Z,17.40
2019-03-21T18:03:35.847Z,19.20
2019-03-21T18:06:06.051Z,20.07
2019-03-21T18:08:36.266Z,20.13
2019-03-21T18:11:06.552Z,19.63
2019-03-21T18:13:36.840Z,20.47
2019-03-21T18:16:07.123Z,21.37
2019-03-21T18:18:37.368Z,21.73
2019-03-21T18:21:07.584Z,21.30
2019-03-21T18:23:37.779Z,21.93
2019-03-21T18:26:08.071Z,21.07
2019-03-21T18:28:38.573Z,21.43
2019-03-21T18:31:08.976Z,20.07
2019-03-21T18:33:39.175Z,24.20
2019-03-21T18:36:09.574Z,21.43
2019-03-21T18:38:40.129Z,22.13
2019-03-21T18:41:10.440Z,22.20
2019-03-21T18:43:40.888Z,24.10
2019-03-21T18:46:11.499Z,29.63
2019-03-21T18:48:41.898Z,33.20
2019-03-21T18:51:12.241Z,26.20
2019-03-21T18:53:42.700Z,25.60
2019-03-21T18:56:12.923Z,24.97
2019-03-21T18:58:44.255Z,23.70
2019-03-21T19:01:14.464Z,24.40
2019-03-21T19:03:44.676Z,25.57
2019-03-21T19:06:14.875Z,23.97
2019-03-21T19:08:45.584Z,25.60
2019-03-21T19:11:15.863Z,24.87
2019-03-21T19:13:46.088Z,24.90
2019-03-21T19:16:16.315Z,25.37
2019-03-21T19:18:46.876Z,26.20
2019-03-21T19:21:17.097Z,24.67
2019-03-21T19:23:47.844Z,26.27
2019-03-21T19:26:18.224Z,25.03
2019-03-21T19:28:48.677Z,26.40
2019-03-21T19:31:18.976Z,25.07
2019-03-21T19:33:49.265Z,26.13
2019-03-21T19:36:19.827Z,28.90
2019-03-21T19:38:50.406Z,25.40
2019-03-21T19:41:20.956Z,26.47
2019-03-21T19:43:51.156Z,27.17
2019-03-21T19:46:21.452Z,26.37
2019-03-21T19:48:51.669Z,26.10
2019-03-21T19:51:21.968Z,26.93
2019-03-21T19:53:52.495Z,26.70
2019-03-21T19:56:23.056Z,27.30
2019-03-21T19:58:53.269Z,25.60
2019-03-21T20:01:23.475Z,27.23
2019-03-21T20:03:53.688Z,27.53
2019-03-21T20:06:24.228Z,29.20
2019-03-21T20:08:56.761Z,27.57
2019-03-21T20:11:26.356Z,27.67
2019-03-21T20:13:56.632Z,28.23
2019-03-21T20:16:26.876Z,30.10
2019-03-21T20:18:57.163Z,28.97
2019-03-21T20:21:27.359Z,28.80
2019-03-21T20:23:57.676Z,35.17
2019-03-21T20:26:27.935Z,31.23
2019-03-21T20:28:58.558Z,29.97
2019-03-21T20:31:28.847Z,30.50
2019-03-21T20:33:59.345Z,30.73
2019-03-21T20:36:29.543Z,30.33
2019-03-21T20:38:59.996Z,28.37
2019-03-21T20:41:30.200Z,29.93
2019-03-21T20:44:00.409Z,30.17
2019-03-21T20:46:30.612Z,29.47
2019-03-21T20:48:58.987Z,31.47
2019-03-21T20:51:29.183Z,32.83
2019-03-21T20:53:59.463Z,30.57
2019-03-21T20:56:29.669Z,30.43
2019-03-21T20:58:59.878Z,32.20
2019-03-21T21:01:30.176Z,32.63
2019-03-21T21:04:00.610Z,32.07
2019-03-21T21:06:30.949Z,30.43
2019-03-21T21:09:01.188Z,33.07
2019-03-21T21:11:35.112Z,36.63
2019-03-21T21:14:05.456Z,32.47
2019-03-21T21:16:36.042Z,32.73
2019-03-21T21:19:06.264Z,33.33
2019-03-21T21:21:36.521Z,32.60
2019-03-21T21:24:07.147Z,32.27
2019-03-21T21:26:37.343Z,32.47
2019-03-21T21:29:07.565Z,35.60
2019-03-21T21:31:37.900Z,33.33
2019-03-21T21:34:08.184Z,35.97
2019-03-21T21:36:39.231Z,34.90
2019-03-21T21:39:09.459Z,35.40
2019-03-21T21:41:39.859Z,36.23
2019-03-21T21:44:10.104Z,37.67
2019-03-21T21:46:40.303Z,37.13
2019-03-21T21:49:13.026Z,36.60
2019-03-21T21:51:42.487Z,37.43
2019-03-21T21:54:12.692Z,37.67
2019-03-21T21:56:42.932Z,37.77
2019-03-21T21:59:13.210Z,37.33
2019-03-21T22:01:44.243Z,37.73
2019-03-21T22:04:14.452Z,38.27
2019-03-21T22:06:44.735Z,38.63
2019-03-21T22:09:14.931Z,37.50
2019-03-21T22:11:45.482Z,39.80
2019-03-21T22:14:15.932Z,38.80
2019-03-21T22:16:46.795Z,39.47
2019-03-21T22:19:17.008Z,38.70
2019-03-21T22:21:47.219Z,39.57
2019-03-21T22:24:17.659Z,39.30
2019-03-21T22:26:47.883Z,40.53
2019-03-21T22:29:18.091Z,39.80
2019-03-21T22:31:48.307Z,40.50
2019-03-21T22:34:19.105Z,39.83
2019-03-21T22:36:50.743Z,38.33
2019-03-21T22:39:20.944Z,39.40
2019-03-21T22:41:51.145Z,40.03
2019-03-21T22:44:21.655Z,39.80
2019-03-21T22:46:51.923Z,38.37
2019-03-21T22:49:22.204Z,38.90
2019-03-21T22:51:52.411Z,39.60
2019-03-21T22:54:22.624Z,38.73
2019-03-21T22:56:52.873Z,37.87
2019-03-21T22:59:23.079Z,37.80
2019-03-21T23:01:53.354Z,39.30
2019-03-21T23:04:23.925Z,40.00
2019-03-21T23:06:54.430Z,39.70
2019-03-21T23:09:26.168Z,36.88
2019-03-21T23:11:56.415Z,37.17
2019-03-21T23:14:28.332Z,36.27
2019-03-21T23:16:58.540Z,36.53
2019-03-21T23:19:28.759Z,36.20
2019-03-21T23:21:59.099Z,37.60
2019-03-21T23:24:29.336Z,35.67
2019-03-21T23:27:00.523Z,36.97
2019-03-21T23:29:30.901Z,39.93
2019-03-21T23:32:01.435Z,38.37
2019-03-21T23:34:31.640Z,39.20
2019-03-21T23:37:01.895Z,39.07
2019-03-21T23:39:33.068Z,39.40
2019-03-21T23:42:03.588Z,40.10
2019-03-21T23:44:34.443Z,37.33
2019-03-21T23:47:04.704Z,36.77
2019-03-21T23:49:35.220Z,35.93
2019-03-21T23:52:06.180Z,35.87
2019-03-21T23:54:36.711Z,34.60
2019-03-21T23:57:06.935Z,36.00
2019-03-21T23:59:37.148Z,35.47
